sensor_id;sensor_type;location;lat;lon;timestamp;temperature;humidity
7958;DHT22;4024;52.172;5.378;2023-04-15T00:00:08;11.90;99.90
7958;DHT22;4024;52.172;5.378;2023-04-15T00:02:34;11.90;99.90
7958;DHT22;4024;52.172;5.378;2023-04-15T00:05:01;11.90;99.90
7958;DHT22;4024;52.172;5.378;2023-04-15T00:07:27;11.80;99.90
7958;DHT22;4024;52.172;5.378;2023-04-15T00:09:54;11.80;99.90
7958;DHT22;4024;52.172;5.378;2023-04-15T00:12:22;11.80;99.90
7958;DHT22;4024;52.172;5.378;2023-04-15T00:14:48;11.80;99.90
7958;DHT22;4024;52.172;5.378;2023-04-15T00:17:14;11.80;99.90
7958;DHT22;4024;52.172;5.378;2023-04-15T00:19:40;11.80;99.90
7958;DHT22;4024;52.172;5.378;2023-04-15T00:22:06;11.70;99.90
7958;DHT22;4024;52.172;5.378;2023-04-15T00:24:32;11.70;99.90
7958;DHT22;4024;52.172;5.378;2023-04-15T00:26:58;11.70;99.90
7958;DHT22;4024;52.172;5.378;2023-04-15T00:29:24;11.70;99.90
7958;DHT22;4024;52.172;5.378;2023-04-15T00:31:50;11.70;99.90
7958;DHT22;4024;52.172;5.378;2023-04-15T00:34:16;11.70;99.90
7958;DHT22;4024;52.172;5.378;2023-04-15T00:36:42;11.70;99.90
7958;DHT22;4024;52.172;5.378;2023-04-15T00:39:08;11.60;99.90
7958;DHT22;4024;52.172;5.378;2023-04-15T00:41:33;11.60;99.90
7958;DHT22;4024;52.172;5.378;2023-04-15T00:44:00;11.60;99.90
7958;DHT22;4024;52.172;5.378;2023-04-15T00:46:28;11.60;99.90
7958;DHT22;4024;52.172;5.378;2023-04-15T00:48:55;11.60;99.90
7958;DHT22;4024;52.172;5.378;2023-04-15T00:51:21;11.50;99.90
7958;DHT22;4024;52.172;5.378;2023-04-15T00:53:46;11.60;99.90
7958;DHT22;4024;52.172;5.378;2023-04-15T00:56:14;11.50;99.90
7958;DHT22;4024;52.172;5.378;2023-04-15T00:58:40;11.50;99.90
7958;DHT22;4024;52.172;5.378;2023-04-15T01:01:06;11.50;99.90
7958;DHT22;4024;52.172;5.378;2023-04-15T01:03:32;11.40;99.90
7958;DHT22;4024;52.172;5.378;2023-04-15T01:05:59;11.40;99.90
7958;DHT22;4024;52.172;5.378;2023-04-15T01:08:28;11.30;99.90
7958;DHT22;4024;52.172;5.378;2023-04-15T01:10:55;11.30;99.90
7958;DHT22;4024;52.172;5.378;2023-04-15T01:13:22;11.30;99.90
7958;DHT22;4024;52.172;5.378;2023-04-15T01:15:48;11.30;99.90
7958;DHT22;4024;52.172;5.378;2023-04-15T01:18:14;11.20;99.90
7958;DHT22;4024;52.172;5.378;2023-04-15T01:20:40;11.20;99.90
7958;DHT22;4024;52.172;5.378;2023-04-15T01:23:06;11.20;99.90
7958;DHT22;4024;52.172;5.378;2023-04-15T01:25:33;11.20;99.90
7958;DHT22;4024;52.172;5.378;2023-04-15T01:27:59;11.20;99.90
7958;DHT22;4024;52.172;5.378;2023-04-15T01:30:25;11.10;99.90
7958;DHT22;4024;52.172;5.378;2023-04-15T01:32:54;11.10;99.90
7958;DHT22;4024;52.172;5.378;2023-04-15T01:35:20;11.10;99.90
7958;DHT22;4024;52.172;5.378;2023-04-15T01:37:47;11.00;99.90
7958;DHT22;4024;52.172;5.378;2023-04-15T01:40:12;11.10;99.90
7958;DHT22;4024;52.172;5.378;2023-04-15T01:42:38;11.00;99.90
7958;DHT22;4024;52.172;5.378;2023-04-15T01:45:04;11.00;99.90
7958;DHT22;4024;52.172;5.378;2023-04-15T01:47:30;11.00;99.90
7958;DHT22;4024;52.172;5.378;2023-04-15T01:49:56;10.90;99.90
7958;DHT22;4024;52.172;5.378;2023-04-15T01:52:22;10.90;99.90
7958;DHT22;4024;52.172;5.378;2023-04-15T01:54:47;10.90;99.90
7958;DHT22;4024;52.172;5.378;2023-04-15T01:57:14;10.90;99.90
7958;DHT22;4024;52.172;5.378;2023-04-15T01:59:41;10.80;99.90
7958;DHT22;4024;52.172;5.378;2023-04-15T02:02:07;10.80;99.90
7958;DHT22;4024;52.172;5.378;2023-04-15T02:04:32;10.80;99.90
7958;DHT22;4024;52.172;5.378;2023-04-15T02:06:58;10.80;99.90
7958;DHT22;4024;52.172;5.378;2023-04-15T02:09:24;10.80;99.90
7958;DHT22;4024;52.172;5.378;2023-04-15T02:11:51;10.80;99.90
7958;DHT22;4024;52.172;5.378;2023-04-15T02:14:18;10.70;99.90
7958;DHT22;4024;52.172;5.378;2023-04-15T02:16:43;10.70;99.90
7958;DHT22;4024;52.172;5.378;2023-04-15T02:19:10;10.70;99.90
7958;DHT22;4024;52.172;5.378;2023-04-15T02:21:35;10.60;99.90
7958;DHT22;4024;52.172;5.378;2023-04-15T02:24:01;10.60;99.90
7958;DHT22;4024;52.172;5.378;2023-04-15T02:26:27;10.60;99.90
7958;DHT22;4024;52.172;5.378;2023-04-15T02:28:56;10.60;99.90
7958;DHT22;4024;52.172;5.378;2023-04-15T02:31:21;10.60;99.90
7958;DHT22;4024;52.172;5.378;2023-04-15T02:33:47;10.50;99.90
7958;DHT22;4024;52.172;5.378;2023-04-15T02:36:13;10.50;99.90
7958;DHT22;4024;52.172;5.378;2023-04-15T02:38:38;10.50;99.90
7958;DHT22;4024;52.172;5.378;2023-04-15T02:41:06;10.50;99.90
7958;DHT22;4024;52.172;5.378;2023-04-15T02:43:32;10.40;99.90
7958;DHT22;4024;52.172;5.378;2023-04-15T02:45:58;10.40;99.90
7958;DHT22;4024;52.172;5.378;2023-04-15T02:48:24;10.40;99.90
7958;DHT22;4024;52.172;5.378;2023-04-15T02:50:49;10.40;99.90
7958;DHT22;4024;52.172;5.378;2023-04-15T02:53:15;10.40;99.90
7958;DHT22;4024;52.172;5.378;2023-04-15T02:55:41;10.30;99.90
7958;DHT22;4024;52.172;5.378;2023-04-15T02:58:07;10.30;99.90
7958;DHT22;4024;52.172;5.378;2023-04-15T03:00:33;10.30;99.90
7958;DHT22;4024;52.172;5.378;2023-04-15T03:03:03;10.20;99.90
7958;DHT22;4024;52.172;5.378;2023-04-15T03:05:29;10.30;99.90
7958;DHT22;4024;52.172;5.378;2023-04-15T03:07:55;10.20;99.90
7958;DHT22;4024;52.172;5.378;2023-04-15T03:10:21;10.20;99.90
7958;DHT22;4024;52.172;5.378;2023-04-15T03:12:47;10.20;99.90
7958;DHT22;4024;52.172;5.378;2023-04-15T03:15:12;10.10;99.90
7958;DHT22;4024;52.172;5.378;2023-04-15T03:17:38;10.10;99.90
7958;DHT22;4024;52.172;5.378;2023-04-15T03:20:05;10.10;99.90
7958;DHT22;4024;52.172;5.378;2023-04-15T03:22:31;10.10;99.90
7958;DHT22;4024;52.172;5.378;2023-04-15T03:24:57;10.00;99.90
7958;DHT22;4024;52.172;5.378;2023-04-15T03:27:22;10.00;99.90
7958;DHT22;4024;52.172;5.378;2023-04-15T03:29:48;10.00;99.90
7958;DHT22;4024;52.172;5.378;2023-04-15T03:32:14;9.90;99.90
7958;DHT22;4024;52.172;5.378;2023-04-15T03:34:40;9.90;99.90
7958;DHT22;4024;52.172;5.378;2023-04-15T03:37:06;9.90;99.90
7958;DHT22;4024;52.172;5.378;2023-04-15T03:39:33;9.90;99.90
7958;DHT22;4024;52.172;5.378;2023-04-15T03:41:58;9.90;99.90
7958;DHT22;4024;52.172;5.378;2023-04-15T03:44:25;9.80;99.90
7958;DHT22;4024;52.172;5.378;2023-04-15T03:46:51;9.80;99.90
7958;DHT22;4024;52.172;5.378;2023-04-15T03:49:17;9.80;99.90
7958;DHT22;4024;52.172;5.378;2023-04-15T03:51:43;9.80;99.90
7958;DHT22;4024;52.172;5.378;2023-04-15T03:54:09;9.70;99.90
7958;DHT22;4024;52.172;5.378;2023-04-15T03:56:36;9.70;99.90
7958;DHT22;4024;52.172;5.378;2023-04-15T03:59:01;9.60;99.90
7958;DHT22;4024;52.172;5.378;2023-04-15T04:01:27;9.60;99.90
7958;DHT22;4024;52.172;5.378;2023-04-15T04:03:52;9.60;99.90
7958;DHT22;4024;52.172;5.378;2023-04-15T04:06:18;9.60;99.90
7958;DHT22;4024;52.172;5.378;2023-04-15T04:08:44;9.50;99.90
7958;DHT22;4024;52.172;5.378;2023-04-15T04:11:10;9.50;99.90
7958;DHT22;4024;52.172;5.378;2023-04-15T04:13:36;9.50;99.90
7958;DHT22;4024;52.172;5.378;2023-04-15T04:16:02;9.40;99.90
7958;DHT22;4024;52.172;5.378;2023-04-15T04:18:30;9.40;99.90
7958;DHT22;4024;52.172;5.378;2023-04-15T04:20:56;9.40;99.90
7958;DHT22;4024;52.172;5.378;2023-04-15T04:23:21;9.30;99.90
7958;DHT22;4024;52.172;5.378;2023-04-15T04:25:47;9.30;99.90
7958;DHT22;4024;52.172;5.378;2023-04-15T04:28:12;9.20;99.90
7958;DHT22;4024;52.172;5.378;2023-04-15T04:30:38;9.20;99.90
7958;DHT22;4024;52.172;5.378;2023-04-15T04:33:04;9.20;99.90
7958;DHT22;4024;52.172;5.378;2023-04-15T04:35:30;9.10;99.90
7958;DHT22;4024;52.172;5.378;2023-04-15T04:37:59;9.10;99.90
7958;DHT22;4024;52.172;5.378;2023-04-15T04:40:25;9.00;99.90
7958;DHT22;4024;52.172;5.378;2023-04-15T04:42:52;9.00;99.90
7958;DHT22;4024;52.172;5.378;2023-04-15T04:45:18;9.00;99.90
7958;DHT22;4024;52.172;5.378;2023-04-15T04:47:43;8.90;99.90
7958;DHT22;4024;52.172;5.378;2023-04-15T04:50:09;8.90;99.90
7958;DHT22;4024;52.172;5.378;2023-04-15T04:52:35;8.90;99.90
7958;DHT22;4024;52.172;5.378;2023-04-15T04:55:01;8.90;99.90
7958;DHT22;4024;52.172;5.378;2023-04-15T04:57:26;8.80;99.90
7958;DHT22;4024;52.172;5.378;2023-04-15T04:59:52;8.80;99.90
7958;DHT22;4024;52.172;5.378;2023-04-15T05:02:18;8.80;99.90
7958;DHT22;4024;52.172;5.378;2023-04-15T05:04:43;8.70;99.90
7958;DHT22;4024;52.172;5.378;2023-04-15T05:07:09;8.80;99.90
7958;DHT22;4024;52.172;5.378;2023-04-15T05:09:35;8.70;99.90
7958;DHT22;4024;52.172;5.378;2023-04-15T05:12:02;8.70;99.90
7958;DHT22;4024;52.172;5.378;2023-04-15T05:14:28;8.70;99.90
7958;DHT22;4024;52.172;5.378;2023-04-15T05:16:53;8.70;99.90
7958;DHT22;4024;52.172;5.378;2023-04-15T05:19:19;8.70;99.90
7958;DHT22;4024;52.172;5.378;2023-04-15T05:21:44;8.70;99.90
7958;DHT22;4024;52.172;5.378;2023-04-15T05:24:10;8.70;99.90
7958;DHT22;4024;52.172;5.378;2023-04-15T05:26:35;8.70;99.90
7958;DHT22;4024;52.172;5.378;2023-04-15T05:29:01;8.70;99.90
7958;DHT22;4024;52.172;5.378;2023-04-15T05:31:27;8.70;99.90
7958;DHT22;4024;52.172;5.378;2023-04-15T05:33:53;8.70;99.90
7958;DHT22;4024;52.172;5.378;2023-04-15T05:36:18;8.70;99.90
7958;DHT22;4024;52.172;5.378;2023-04-15T05:38:44;8.70;99.90
7958;DHT22;4024;52.172;5.378;2023-04-15T05:41:09;8.70;99.90
7958;DHT22;4024;52.172;5.378;2023-04-15T05:43:35;8.70;99.90
7958;DHT22;4024;52.172;5.378;2023-04-15T05:46:00;8.80;99.90
7958;DHT22;4024;52.172;5.378;2023-04-15T05:48:26;8.80;99.90
7958;DHT22;4024;52.172;5.378;2023-04-15T05:50:52;8.80;99.90
7958;DHT22;4024;52.172;5.378;2023-04-15T05:53:17;8.80;99.90
7958;DHT22;4024;52.172;5.378;2023-04-15T05:55:43;8.80;99.90
7958;DHT22;4024;52.172;5.378;2023-04-15T05:58:09;8.80;99.90
7958;DHT22;4024;52.172;5.378;2023-04-15T06:00:34;8.80;99.90
7958;DHT22;4024;52.172;5.378;2023-04-15T06:03:00;8.80;99.90
7958;DHT22;4024;52.172;5.378;2023-04-15T06:05:26;8.90;99.90
7958;DHT22;4024;52.172;5.378;2023-04-15T06:07:52;8.90;99.90
7958;DHT22;4024;52.172;5.378;2023-04-15T06:10:17;8.90;99.90
7958;DHT22;4024;52.172;5.378;2023-04-15T06:12:44;8.90;99.90
7958;DHT22;4024;52.172;5.378;2023-04-15T06:15:10;8.90;99.90
7958;DHT22;4024;52.172;5.378;2023-04-15T06:17:36;8.90;99.90
7958;DHT22;4024;52.172;5.378;2023-04-15T06:20:02;8.90;99.90
7958;DHT22;4024;52.172;5.378;2023-04-15T06:22:28;8.90;99.90
7958;DHT22;4024;52.172;5.378;2023-04-15T06:24:55;8.90;99.90
7958;DHT22;4024;52.172;5.378;2023-04-15T06:27:20;9.00;99.90
7958;DHT22;4024;52.172;5.378;2023-04-15T06:29:47;9.00;99.90
7958;DHT22;4024;52.172;5.378;2023-04-15T06:32:13;9.00;99.90
7958;DHT22;4024;52.172;5.378;2023-04-15T06:34:38;9.10;99.90
7958;DHT22;4024;52.172;5.378;2023-04-15T06:37:04;9.10;99.90
7958;DHT22;4024;52.172;5.378;2023-04-15T06:39:30;9.20;99.90
7958;DHT22;4024;52.172;5.378;2023-04-15T06:41:56;9.20;99.90
7958;DHT22;4024;52.172;5.378;2023-04-15T06:44:22;9.30;99.90
7958;DHT22;4024;52.172;5.378;2023-04-15T06:46:48;9.30;99.90
7958;DHT22;4024;52.172;5.378;2023-04-15T06:49:13;9.40;99.90
7958;DHT22;4024;52.172;5.378;2023-04-15T06:51:39;9.50;99.90
7958;DHT22;4024;52.172;5.378;2023-04-15T06:54:04;9.50;99.90
7958;DHT22;4024;52.172;5.378;2023-04-15T06:56:33;9.50;99.90
7958;DHT22;4024;52.172;5.378;2023-04-15T06:58:59;9.60;99.90
7958;DHT22;4024;52.172;5.378;2023-04-15T07:01:25;9.60;99.90
7958;DHT22;4024;52.172;5.378;2023-04-15T07:03:51;9.60;99.90
7958;DHT22;4024;52.172;5.378;2023-04-15T07:06:16;9.70;99.90
7958;DHT22;4024;52.172;5.378;2023-04-15T07:08:42;9.70;99.90
7958;DHT22;4024;52.172;5.378;2023-04-15T07:11:08;9.80;99.90
7958;DHT22;4024;52.172;5.378;2023-04-15T07:13:33;9.90;99.90
7958;DHT22;4024;52.172;5.378;2023-04-15T07:15:59;9.90;99.90
7958;DHT22;4024;52.172;5.378;2023-04-15T07:18:25;10.00;99.90
7958;DHT22;4024;52.172;5.378;2023-04-15T07:20:50;10.00;99.90
7958;DHT22;4024;52.172;5.378;2023-04-15T07:23:16;10.10;99.90
7958;DHT22;4024;52.172;5.378;2023-04-15T07:25:42;10.20;99.90
7958;DHT22;4024;52.172;5.378;2023-04-15T07:28:08;10.30;99.90
7958;DHT22;4024;52.172;5.378;2023-04-15T07:30:33;10.30;99.90
7958;DHT22;4024;52.172;5.378;2023-04-15T07:33:00;10.40;99.90
7958;DHT22;4024;52.172;5.378;2023-04-15T07:35:27;10.50;99.90
7958;DHT22;4024;52.172;5.378;2023-04-15T07:37:53;10.50;99.90
7958;DHT22;4024;52.172;5.378;2023-04-15T07:40:19;10.60;99.90
7958;DHT22;4024;52.172;5.378;2023-04-15T07:42:44;10.70;99.90
7958;DHT22;4024;52.172;5.378;2023-04-15T07:45:10;10.70;99.90
7958;DHT22;4024;52.172;5.378;2023-04-15T07:47:37;10.80;99.90
7958;DHT22;4024;52.172;5.378;2023-04-15T07:50:03;10.90;99.90
7958;DHT22;4024;52.172;5.378;2023-04-15T07:52:28;10.90;99.90
7958;DHT22;4024;52.172;5.378;2023-04-15T07:54:55;11.00;99.90
7958;DHT22;4024;52.172;5.378;2023-04-15T07:57:21;11.10;99.90
7958;DHT22;4024;52.172;5.378;2023-04-15T07:59:46;11.10;99.90
7958;DHT22;4024;52.172;5.378;2023-04-15T08:02:12;11.20;99.90
7958;DHT22;4024;52.172;5.378;2023-04-15T08:04:37;11.30;99.90
7958;DHT22;4024;52.172;5.378;2023-04-15T08:07:03;11.30;99.90
7958;DHT22;4024;52.172;5.378;2023-04-15T08:09:29;11.30;99.90
7958;DHT22;4024;52.172;5.378;2023-04-15T08:11:55;11.40;99.90
7958;DHT22;4024;52.172;5.378;2023-04-15T08:14:21;11.40;99.90
7958;DHT22;4024;52.172;5.378;2023-04-15T08:16:47;11.50;99.90
7958;DHT22;4024;52.172;5.378;2023-04-15T08:19:13;11.50;99.90
7958;DHT22;4024;52.172;5.378;2023-04-15T08:21:38;11.50;99.90
7958;DHT22;4024;52.172;5.378;2023-04-15T08:24:05;11.60;99.90
7958;DHT22;4024;52.172;5.378;2023-04-15T08:26:31;11.60;99.90
7958;DHT22;4024;52.172;5.378;2023-04-15T08:28:57;11.60;99.90
7958;DHT22;4024;52.172;5.378;2023-04-15T08:31:22;11.70;99.90
7958;DHT22;4024;52.172;5.378;2023-04-15T08:33:48;11.70;99.90
7958;DHT22;4024;52.172;5.378;2023-04-15T08:36:16;11.80;99.90
7958;DHT22;4024;52.172;5.378;2023-04-15T08:38:43;11.80;99.90
7958;DHT22;4024;52.172;5.378;2023-04-15T08:41:23;11.90;99.90
7958;DHT22;4024;52.172;5.378;2023-04-15T08:44:08;11.90;99.90
7958;DHT22;4024;52.172;5.378;2023-04-15T08:46:33;11.90;99.90
7958;DHT22;4024;52.172;5.378;2023-04-15T08:49:00;12.00;99.90
7958;DHT22;4024;52.172;5.378;2023-04-15T08:51:27;12.10;99.90
7958;DHT22;4024;52.172;5.378;2023-04-15T08:53:53;12.10;99.90
7958;DHT22;4024;52.172;5.378;2023-04-15T08:56:25;12.20;99.90
7958;DHT22;4024;52.172;5.378;2023-04-15T08:58:53;12.30;99.90
7958;DHT22;4024;52.172;5.378;2023-04-15T09:01:19;12.30;99.90
7958;DHT22;4024;52.172;5.378;2023-04-15T09:03:47;12.40;99.90
7958;DHT22;4024;52.172;5.378;2023-04-15T09:06:16;12.40;99.90
7958;DHT22;4024;52.172;5.378;2023-04-15T09:08:42;12.50;99.90
7958;DHT22;4024;52.172;5.378;2023-04-15T09:11:07;12.60;99.90
7958;DHT22;4024;52.172;5.378;2023-04-15T09:13:40;12.60;99.90
7958;DHT22;4024;52.172;5.378;2023-04-15T09:16:06;12.70;99.90
7958;DHT22;4024;52.172;5.378;2023-04-15T09:18:33;12.70;99.90
7958;DHT22;4024;52.172;5.378;2023-04-15T09:21:08;12.80;99.90
7958;DHT22;4024;52.172;5.378;2023-04-15T09:23:36;12.90;99.90
7958;DHT22;4024;52.172;5.378;2023-04-15T09:26:03;12.90;99.90
7958;DHT22;4024;52.172;5.378;2023-04-15T09:28:28;13.00;99.90
7958;DHT22;4024;52.172;5.378;2023-04-15T09:30:58;13.10;99.90
7958;DHT22;4024;52.172;5.378;2023-04-15T09:33:24;13.10;99.90
7958;DHT22;4024;52.172;5.378;2023-04-15T09:35:59;13.20;99.90
7958;DHT22;4024;52.172;5.378;2023-04-15T09:38:24;13.20;99.90
7958;DHT22;4024;52.172;5.378;2023-04-15T09:40:50;13.30;99.90
7958;DHT22;4024;52.172;5.378;2023-04-15T09:43:16;13.30;99.90
7958;DHT22;4024;52.172;5.378;2023-04-15T09:45:52;13.40;99.90
7958;DHT22;4024;52.172;5.378;2023-04-15T09:48:19;13.40;99.90
7958;DHT22;4024;52.172;5.378;2023-04-15T09:50:49;13.50;99.90
7958;DHT22;4024;52.172;5.378;2023-04-15T09:53:17;13.50;99.90
7958;DHT22;4024;52.172;5.378;2023-04-15T09:55:50;13.50;99.90
7958;DHT22;4024;52.172;5.378;2023-04-15T09:58:24;13.60;99.90
7958;DHT22;4024;52.172;5.378;2023-04-15T10:00:52;13.60;99.90
7958;DHT22;4024;52.172;5.378;2023-04-15T10:05:46;13.80;99.90
7958;DHT22;4024;52.172;5.378;2023-04-15T10:08:15;13.80;99.90
7958;DHT22;4024;52.172;5.378;2023-04-15T10:10:42;13.90;99.90
7958;DHT22;4024;52.172;5.378;2023-04-15T10:13:08;13.90;99.90
7958;DHT22;4024;52.172;5.378;2023-04-15T10:15:34;14.00;99.90
7958;DHT22;4024;52.172;5.378;2023-04-15T10:18:00;14.10;99.90
7958;DHT22;4024;52.172;5.378;2023-04-15T10:20:28;14.10;99.90
7958;DHT22;4024;52.172;5.378;2023-04-15T10:22:54;14.10;99.90
7958;DHT22;4024;52.172;5.378;2023-04-15T10:25:20;14.30;99.90
7958;DHT22;4024;52.172;5.378;2023-04-15T10:27:46;14.30;99.90
7958;DHT22;4024;52.172;5.378;2023-04-15T10:30:13;14.40;99.90
7958;DHT22;4024;52.172;5.378;2023-04-15T10:32:40;14.40;99.90
7958;DHT22;4024;52.172;5.378;2023-04-15T10:35:06;14.40;99.90
7958;DHT22;4024;52.172;5.378;2023-04-15T10:37:35;14.50;99.90
7958;DHT22;4024;52.172;5.378;2023-04-15T10:42:57;14.60;99.90
7958;DHT22;4024;52.172;5.378;2023-04-15T10:45:25;14.70;99.90
7958;DHT22;4024;52.172;5.378;2023-04-15T10:47:55;14.80;99.90
7958;DHT22;4024;52.172;5.378;2023-04-15T10:50:22;14.80;99.90
7958;DHT22;4024;52.172;5.378;2023-04-15T10:52:50;14.80;99.90
7958;DHT22;4024;52.172;5.378;2023-04-15T10:55:21;14.90;99.90
7958;DHT22;4024;52.172;5.378;2023-04-15T10:57:52;14.90;99.90
7958;DHT22;4024;52.172;5.378;2023-04-15T11:00:19;15.00;99.90
7958;DHT22;4024;52.172;5.378;2023-04-15T11:02:47;14.90;99.90
7958;DHT22;4024;52.172;5.378;2023-04-15T11:05:17;15.00;99.90
7958;DHT22;4024;52.172;5.378;2023-04-15T11:07:49;15.00;99.90
7958;DHT22;4024;52.172;5.378;2023-04-15T11:12:52;15.00;99.90
7958;DHT22;4024;52.172;5.378;2023-04-15T11:15:33;15.00;99.90
7958;DHT22;4024;52.172;5.378;2023-04-15T11:20:46;15.00;99.90
7958;DHT22;4024;52.172;5.378;2023-04-15T11:23:18;15.00;99.90
7958;DHT22;4024;52.172;5.378;2023-04-15T11:25:45;15.00;99.90
7958;DHT22;4024;52.172;5.378;2023-04-15T11:28:12;15.00;99.90
7958;DHT22;4024;52.172;5.378;2023-04-15T11:30:38;15.10;99.90
7958;DHT22;4024;52.172;5.378;2023-04-15T11:33:09;15.00;99.90
7958;DHT22;4024;52.172;5.378;2023-04-15T11:35:36;15.10;99.90
7958;DHT22;4024;52.172;5.378;2023-04-15T11:38:08;15.10;99.90
7958;DHT22;4024;52.172;5.378;2023-04-15T11:40:35;15.20;99.90
7958;DHT22;4024;52.172;5.378;2023-04-15T11:43:12;15.20;99.90
7958;DHT22;4024;52.172;5.378;2023-04-15T11:46:04;15.30;99.90
7958;DHT22;4024;52.172;5.378;2023-04-15T11:48:32;15.30;99.90
7958;DHT22;4024;52.172;5.378;2023-04-15T11:51:02;15.30;99.90
7958;DHT22;4024;52.172;5.378;2023-04-15T11:53:46;15.30;99.90
7958;DHT22;4024;52.172;5.378;2023-04-15T11:56:23;15.30;99.90
7958;DHT22;4024;52.172;5.378;2023-04-15T11:58:56;15.30;99.90
7958;DHT22;4024;52.172;5.378;2023-04-15T12:01:35;15.30;99.90
7958;DHT22;4024;52.172;5.378;2023-04-15T12:04:01;15.30;99.90
7958;DHT22;4024;52.172;5.378;2023-04-15T12:06:35;15.30;99.90
7958;DHT22;4024;52.172;5.378;2023-04-15T12:09:15;15.30;99.90
7958;DHT22;4024;52.172;5.378;2023-04-15T12:11:46;15.20;99.90
7958;DHT22;4024;52.172;5.378;2023-04-15T12:16:57;15.30;99.90
7958;DHT22;4024;52.172;5.378;2023-04-15T12:19:42;15.30;99.90
7958;DHT22;4024;52.172;5.378;2023-04-15T12:22:11;15.20;99.90
7958;DHT22;4024;52.172;5.378;2023-04-15T12:24:38;15.20;99.90
7958;DHT22;4024;52.172;5.378;2023-04-15T12:27:12;15.30;99.90
7958;DHT22;4024;52.172;5.378;2023-04-15T12:29:39;15.20;99.90
7958;DHT22;4024;52.172;5.378;2023-04-15T12:32:15;15.20;99.90
7958;DHT22;4024;52.172;5.378;2023-04-15T12:34:48;15.20;99.90
7958;DHT22;4024;52.172;5.378;2023-04-15T12:37:14;15.30;99.90
7958;DHT22;4024;52.172;5.378;2023-04-15T12:39:44;15.30;99.90
7958;DHT22;4024;52.172;5.378;2023-04-15T12:42:10;15.30;99.90
7958;DHT22;4024;52.172;5.378;2023-04-15T12:44:37;15.30;99.90
7958;DHT22;4024;52.172;5.378;2023-04-15T12:47:03;15.30;99.90
7958;DHT22;4024;52.172;5.378;2023-04-15T12:49:30;15.30;99.90
7958;DHT22;4024;52.172;5.378;2023-04-15T12:51:58;15.30;99.90
7958;DHT22;4024;52.172;5.378;2023-04-15T12:54:28;15.30;99.90
7958;DHT22;4024;52.172;5.378;2023-04-15T12:56:54;15.30;99.90
7958;DHT22;4024;52.172;5.378;2023-04-15T12:59:20;15.30;99.90
7958;DHT22;4024;52.172;5.378;2023-04-15T13:01:47;15.40;99.90
7958;DHT22;4024;52.172;5.378;2023-04-15T13:04:13;15.30;99.90
7958;DHT22;4024;52.172;5.378;2023-04-15T13:06:39;15.30;99.90
7958;DHT22;4024;52.172;5.378;2023-04-15T13:09:05;15.40;99.90
7958;DHT22;4024;52.172;5.378;2023-04-15T13:11:31;15.40;99.90
7958;DHT22;4024;52.172;5.378;2023-04-15T13:13:59;15.40;99.90
7958;DHT22;4024;52.172;5.378;2023-04-15T13:16:25;15.50;99.90
7958;DHT22;4024;52.172;5.378;2023-04-15T13:18:50;15.40;99.90
7958;DHT22;4024;52.172;5.378;2023-04-15T13:21:17;15.40;99.90
7958;DHT22;4024;52.172;5.378;2023-04-15T13:23:43;15.40;99.90
7958;DHT22;4024;52.172;5.378;2023-04-15T13:26:08;15.40;99.90
7958;DHT22;4024;52.172;5.378;2023-04-15T13:28:34;15.20;99.90
7958;DHT22;4024;52.172;5.378;2023-04-15T13:30:59;15.30;99.90
7958;DHT22;4024;52.172;5.378;2023-04-15T13:33:25;15.20;99.90
7958;DHT22;4024;52.172;5.378;2023-04-15T13:35:51;15.20;99.90
7958;DHT22;4024;52.172;5.378;2023-04-15T13:38:17;15.20;99.90
7958;DHT22;4024;52.172;5.378;2023-04-15T13:40:44;15.20;99.90
7958;DHT22;4024;52.172;5.378;2023-04-15T13:43:09;15.20;99.90
7958;DHT22;4024;52.172;5.378;2023-04-15T13:45:35;15.10;99.90
7958;DHT22;4024;52.172;5.378;2023-04-15T13:48:01;15.20;99.90
7958;DHT22;4024;52.172;5.378;2023-04-15T13:50:27;15.20;99.90
7958;DHT22;4024;52.172;5.378;2023-04-15T13:52:53;15.10;99.90
7958;DHT22;4024;52.172;5.378;2023-04-15T13:55:19;15.10;99.90
7958;DHT22;4024;52.172;5.378;2023-04-15T13:57:44;15.10;99.90
7958;DHT22;4024;52.172;5.378;2023-04-15T14:00:11;15.00;99.90
7958;DHT22;4024;52.172;5.378;2023-04-15T14:02:36;15.00;99.90
7958;DHT22;4024;52.172;5.378;2023-04-15T14:05:02;15.00;99.90
7958;DHT22;4024;52.172;5.378;2023-04-15T14:07:28;15.00;99.90
7958;DHT22;4024;52.172;5.378;2023-04-15T14:09:55;15.00;99.90
7958;DHT22;4024;52.172;5.378;2023-04-15T14:12:20;14.90;99.90
7958;DHT22;4024;52.172;5.378;2023-04-15T14:14:46;14.90;99.90
7958;DHT22;4024;52.172;5.378;2023-04-15T14:17:12;14.90;99.90
7958;DHT22;4024;52.172;5.378;2023-04-15T14:19:37;14.80;99.90
7958;DHT22;4024;52.172;5.378;2023-04-15T14:22:03;14.80;99.90
7958;DHT22;4024;52.172;5.378;2023-04-15T14:24:28;14.60;99.90
7958;DHT22;4024;52.172;5.378;2023-04-15T14:26:54;14.60;99.90
7958;DHT22;4024;52.172;5.378;2023-04-15T14:29:21;14.50;99.90
7958;DHT22;4024;52.172;5.378;2023-04-15T14:31:46;14.40;99.90
7958;DHT22;4024;52.172;5.378;2023-04-15T14:34:14;14.30;99.90
7958;DHT22;4024;52.172;5.378;2023-04-15T14:36:40;14.30;99.90
7958;DHT22;4024;52.172;5.378;2023-04-15T14:39:06;14.20;99.90
7958;DHT22;4024;52.172;5.378;2023-04-15T14:41:32;14.10;99.90
7958;DHT22;4024;52.172;5.378;2023-04-15T14:43:58;14.10;99.90
7958;DHT22;4024;52.172;5.378;2023-04-15T14:46:24;14.10;99.90
7958;DHT22;4024;52.172;5.378;2023-04-15T14:48:50;14.10;99.90
7958;DHT22;4024;52.172;5.378;2023-04-15T14:51:16;14.20;99.90
7958;DHT22;4024;52.172;5.378;2023-04-15T14:53:41;14.10;99.90
7958;DHT22;4024;52.172;5.378;2023-04-15T14:56:08;14.00;99.90
7958;DHT22;4024;52.172;5.378;2023-04-15T14:58:33;14.00;99.90
7958;DHT22;4024;52.172;5.378;2023-04-15T15:00:59;13.90;99.90
7958;DHT22;4024;52.172;5.378;2023-04-15T15:03:26;13.80;99.90
7958;DHT22;4024;52.172;5.378;2023-04-15T15:05:51;13.80;99.90
7958;DHT22;4024;52.172;5.378;2023-04-15T15:08:17;13.80;99.90
7958;DHT22;4024;52.172;5.378;2023-04-15T15:10:43;13.80;99.90
7958;DHT22;4024;52.172;5.378;2023-04-15T15:13:09;13.70;99.90
7958;DHT22;4024;52.172;5.378;2023-04-15T15:15:36;13.70;99.90
7958;DHT22;4024;52.172;5.378;2023-04-15T15:18:02;13.70;99.90
7958;DHT22;4024;52.172;5.378;2023-04-15T15:20:28;13.70;99.90
7958;DHT22;4024;52.172;5.378;2023-04-15T15:22:54;13.60;99.90
7958;DHT22;4024;52.172;5.378;2023-04-15T15:25:19;13.50;99.90
7958;DHT22;4024;52.172;5.378;2023-04-15T15:27:45;13.50;99.90
7958;DHT22;4024;52.172;5.378;2023-04-15T15:30:11;13.40;99.90
7958;DHT22;4024;52.172;5.378;2023-04-15T15:32:39;13.30;99.90
7958;DHT22;4024;52.172;5.378;2023-04-15T15:35:05;13.40;99.90
7958;DHT22;4024;52.172;5.378;2023-04-15T15:37:30;13.30;99.90
7958;DHT22;4024;52.172;5.378;2023-04-15T15:39:56;13.30;99.90
7958;DHT22;4024;52.172;5.378;2023-04-15T15:42:22;13.20;99.90
7958;DHT22;4024;52.172;5.378;2023-04-15T15:44:48;13.20;99.90
7958;DHT22;4024;52.172;5.378;2023-04-15T15:47:15;13.20;99.90
7958;DHT22;4024;52.172;5.378;2023-04-15T15:49:40;13.10;99.90
7958;DHT22;4024;52.172;5.378;2023-04-15T15:52:06;13.10;99.90
7958;DHT22;4024;52.172;5.378;2023-04-15T15:54:32;13.10;99.90
7958;DHT22;4024;52.172;5.378;2023-04-15T15:56:59;13.10;99.90
7958;DHT22;4024;52.172;5.378;2023-04-15T15:59:24;13.10;99.90
7958;DHT22;4024;52.172;5.378;2023-04-15T16:01:50;13.10;99.90
7958;DHT22;4024;52.172;5.378;2023-04-15T16:04:16;13.00;99.90
7958;DHT22;4024;52.172;5.378;2023-04-15T16:06:41;13.00;99.90
7958;DHT22;4024;52.172;5.378;2023-04-15T16:09:10;13.00;99.90
7958;DHT22;4024;52.172;5.378;2023-04-15T16:11:35;12.90;99.90
7958;DHT22;4024;52.172;5.378;2023-04-15T16:14:01;12.90;99.90